Time;durP1;ratioP1;P1;durP2;ratioP2;P2;SDS_P1;SDS_P2;PMS_P1;PMS_P2;Temp;Humidity;BMP_temperature;BMP_pressure;BME280_temperature;BME280_humidity;BME280_pressure;Samples;Min_cycle;Max_cycle;Signal;HPM_P1;HPM_P2
2023/07/21 00:02:24;;;;;;;6.75;6.22;;;19.00;99.90;;;;;;5028643;28;20236;-30
2023/07/21 00:04:53;;;;;;;6.85;6.35;;;19.00;99.90;;;;;;5029507;28;20243;-29
2023/07/21 00:07:20;;;;;;;6.78;6.18;;;19.00;99.90;;;;;;5028050;28;20208;-29
2023/07/21 00:09:48;;;;;;;7.13;6.47;;;19.00;99.90;;;;;;5030794;28;20220;-29
2023/07/21 00:12:15;;;;;;;7.82;7.03;;;19.00;99.90;;;;;;5038798;28;20205;-29
2023/07/21 00:14:47;;;;;;;7.00;6.30;;;18.90;99.90;;;;;;5031318;28;20223;-29
2023/07/21 00:17:20;;;;;;;6.78;6.28;;;18.90;99.90;;;;;;5034264;28;20219;-30
2023/07/21 00:19:51;;;;;;;7.85;7.25;;;18.90;99.90;;;;;;5037173;28;20697;-29
2023/07/21 00:22:19;;;;;;;7.25;6.65;;;18.80;99.90;;;;;;5030067;28;20217;-29
2023/07/21 00:24:49;;;;;;;6.65;6.15;;;18.80;99.90;;;;;;5031156;28;20716;-30
2023/07/21 00:27:17;;;;;;;7.03;6.45;;;18.80;99.90;;;;;;5034721;28;20244;-29
2023/07/21 00:29:45;;;;;;;8.02;7.10;;;18.80;99.90;;;;;;5030604;28;20221;-29
2023/07/21 00:32:18;;;;;;;6.72;6.18;;;18.80;99.90;;;;;;5041065;28;20204;-29
2023/07/21 00:34:46;;;;;;;6.70;6.20;;;18.80;99.90;;;;;;5037616;28;20205;-29
2023/07/21 00:37:15;;;;;;;7.55;6.88;;;18.70;99.90;;;;;;5033336;28;20267;-29
2023/07/21 00:39:47;;;;;;;6.80;6.20;;;18.70;99.90;;;;;;5048169;28;20608;-29
2023/07/21 00:42:17;;;;;;;6.90;6.40;;;18.70;99.90;;;;;;5041686;28;20331;-29
2023/07/21 00:44:44;;;;;;;7.27;6.67;;;18.70;99.90;;;;;;5035907;28;20687;-29
2023/07/21 00:47:14;;;;;;;7.03;6.43;;;18.70;99.90;;;;;;5027694;28;20205;-29
2023/07/21 00:49:43;;;;;;;7.30;6.60;;;18.70;99.90;;;;;;5043664;28;20316;-29
2023/07/21 00:52:13;;;;;;;6.60;6.05;;;18.70;99.90;;;;;;5036843;28;20204;-29
2023/07/21 00:54:41;;;;;;;7.32;6.72;;;18.70;99.90;;;;;;5047862;28;20209;-29
2023/07/21 00:57:10;;;;;;;8.68;7.65;;;18.70;99.90;;;;;;5035072;28;20820;-29
2023/07/21 00:59:40;;;;;;;9.00;7.95;;;18.70;99.90;;;;;;5029417;28;20201;-29
2023/07/21 01:02:07;;;;;;;10.27;9.18;;;18.70;99.90;;;;;;5032952;28;20556;-29
2023/07/21 01:04:36;;;;;;;10.75;9.60;;;18.60;99.90;;;;;;5043390;28;20212;-29
2023/07/21 01:07:05;;;;;;;11.77;10.30;;;18.60;99.90;;;;;;5044987;28;20220;-29
2023/07/21 01:09:37;;;;;;;12.77;11.65;;;18.60;99.90;;;;;;5030230;28;20712;-29
2023/07/21 01:12:09;;;;;;;15.57;12.65;;;18.60;99.90;;;;;;5038577;28;20203;-29
2023/07/21 01:14:39;;;;;;;14.98;13.48;;;18.50;99.90;;;;;;5027679;28;20248;-29
2023/07/21 01:17:08;;;;;;;14.32;12.82;;;18.50;99.90;;;;;;5032855;28;20219;-29
2023/07/21 01:19:41;;;;;;;14.82;12.57;;;18.50;99.90;;;;;;5039565;28;20223;-29
2023/07/21 01:22:18;;;;;;;15.00;13.45;;;18.40;99.90;;;;;;5042956;28;20667;-30
2023/07/21 01:24:51;;;;;;;13.57;12.27;;;18.40;99.90;;;;;;5045552;28;20211;-29
2023/07/21 01:27:24;;;;;;;13.73;12.50;;;18.40;99.90;;;;;;5031864;28;20213;-29
2023/07/21 01:29:52;;;;;;;13.60;12.40;;;18.40;99.90;;;;;;5027659;28;20221;-29
2023/07/21 01:32:25;;;;;;;14.10;12.73;;;18.30;99.90;;;;;;5027040;28;20642;-29
2023/07/21 01:34:55;;;;;;;13.57;12.30;;;18.30;99.90;;;;;;5028552;28;20225;-29
2023/07/21 01:37:27;;;;;;;14.65;13.25;;;18.30;99.90;;;;;;5037897;28;20255;-30
2023/07/21 01:39:58;;;;;;;14.30;13.00;;;18.20;99.90;;;;;;5027846;28;20221;-29
2023/07/21 01:42:29;;;;;;;14.85;13.35;;;18.20;99.90;;;;;;5036335;28;20717;-30
2023/07/21 01:45:02;;;;;;;14.00;12.60;;;18.20;99.90;;;;;;5040696;28;20311;-29
2023/07/21 01:47:33;;;;;;;13.25;11.98;;;18.20;99.90;;;;;;5026745;28;20295;-29
2023/07/21 01:50:03;;;;;;;14.20;12.75;;;18.20;99.90;;;;;;5044084;28;20274;-29
2023/07/21 01:52:34;;;;;;;14.20;12.70;;;18.10;99.90;;;;;;5034667;28;20265;-29
2023/07/21 01:55:24;;;;;;;14.63;13.37;;;18.10;99.90;;;;;;5037822;28;20208;-29
2023/07/21 01:58:02;;;;;;;15.47;14.07;;;18.10;99.90;;;;;;5033476;28;20224;-29
2023/07/21 02:00:35;;;;;;;15.13;13.57;;;18.00;99.90;;;;;;5008226;28;20300;-29
2023/07/21 02:03:18;;;;;;;14.60;13.37;;;18.00;99.90;;;;;;5035037;28;20208;-29
2023/07/21 02:05:48;;;;;;;14.65;13.25;;;18.00;99.90;;;;;;5033198;28;20287;-29
2023/07/21 02:08:20;;;;;;;13.80;12.17;;;17.90;99.90;;;;;;5039326;28;20207;-29
2023/07/21 02:10:48;;;;;;;13.83;12.50;;;17.90;99.90;;;;;;5044591;28;20595;-29
2023/07/21 02:13:15;;;;;;;12.35;10.65;;;17.90;99.90;;;;;;5037708;28;20199;-29
2023/07/21 02:15:42;;;;;;;9.60;8.80;;;17.80;99.90;;;;;;5046020;28;20608;-28
2023/07/21 02:18:09;;;;;;;8.82;8.02;;;17.80;99.90;;;;;;5037414;28;20216;-28
2023/07/21 02:20:37;;;;;;;8.10;7.40;;;17.80;99.90;;;;;;5024284;28;20267;-28
2023/07/21 02:23:12;;;;;;;7.43;6.67;;;17.80;99.90;;;;;;5032177;28;20550;-29
2023/07/21 02:25:42;;;;;;;6.87;6.27;;;17.80;99.90;;;;;;5044566;28;20203;-29
2023/07/21 02:28:11;;;;;;;6.47;5.87;;;17.70;99.90;;;;;;5041217;28;20605;-29
2023/07/21 02:30:41;;;;;;;8.03;6.10;;;17.70;99.90;;;;;;5025447;28;20224;-29
2023/07/21 02:33:11;;;;;;;5.83;5.20;;;17.70;99.90;;;;;;5028271;28;20212;-29
2023/07/21 02:35:40;;;;;;;5.60;5.20;;;17.70;99.90;;;;;;5044727;28;20215;-29
2023/07/21 02:38:08;;;;;;;7.67;6.23;;;17.70;99.90;;;;;;5023531;28;20237;-26
2023/07/21 02:40:37;;;;;;;5.78;5.10;;;17.70;99.90;;;;;;5044014;28;20761;-26
2023/07/21 02:43:07;;;;;;;6.53;6.03;;;17.70;99.90;;;;;;5040997;28;20247;-26
2023/07/21 02:45:36;;;;;;;6.50;5.93;;;17.70;99.90;;;;;;5044203;28;20339;-26
2023/07/21 02:48:11;;;;;;;6.60;6.00;;;17.60;99.90;;;;;;5042733;28;20223;-26
2023/07/21 02:50:41;;;;;;;6.90;5.83;;;17.60;99.90;;;;;;5024783;28;20235;-26
2023/07/21 02:53:10;;;;;;;7.38;6.40;;;17.60;99.90;;;;;;5026458;28;20207;-26
2023/07/21 02:55:38;;;;;;;6.33;5.83;;;17.60;99.90;;;;;;5028042;28;20240;-26
2023/07/21 02:58:08;;;;;;;6.33;5.73;;;17.60;99.90;;;;;;5029419;28;20196;-26
2023/07/21 03:00:39;;;;;;;6.70;6.00;;;17.60;99.90;;;;;;5024429;28;20519;-26
2023/07/21 03:03:08;;;;;;;6.20;5.70;;;17.50;99.90;;;;;;5024126;28;20208;-26
2023/07/21 03:05:38;;;;;;;6.13;5.63;;;17.50;99.90;;;;;;5016593;28;20250;-26
2023/07/21 03:08:05;;;;;;;5.90;5.40;;;17.50;99.90;;;;;;5043892;28;20208;-26
2023/07/21 03:10:36;;;;;;;6.20;5.60;;;17.40;99.90;;;;;;5023989;28;20307;-26
2023/07/21 03:13:06;;;;;;;6.57;6.03;;;17.40;99.90;;;;;;5027840;28;20588;-26
2023/07/21 03:15:35;;;;;;;5.72;5.18;;;17.40;99.90;;;;;;5040021;28;20204;-26
2023/07/21 03:18:03;;;;;;;6.23;5.73;;;17.40;99.90;;;;;;5025384;28;20213;-26
2023/07/21 03:20:35;;;;;;;6.95;6.35;;;17.30;99.90;;;;;;5025441;28;20213;-26
2023/07/21 03:23:03;;;;;;;7.32;5.68;;;17.30;99.90;;;;;;5024263;28;20219;-26
2023/07/21 03:25:34;;;;;;;7.38;5.47;;;17.30;99.90;;;;;;5034563;28;20208;-26
2023/07/21 03:28:06;;;;;;;6.20;5.60;;;17.30;99.90;;;;;;5026008;28;20778;-25
2023/07/21 03:30:36;;;;;;;6.05;4.97;;;17.30;99.90;;;;;;5044184;28;20224;-26
2023/07/21 03:33:03;;;;;;;5.45;4.95;;;17.20;99.90;;;;;;5042628;28;20204;-26
2023/07/21 03:35:33;;;;;;;5.43;4.70;;;17.20;99.90;;;;;;5037039;28;20208;-25
2023/07/21 03:38:05;;;;;;;5.27;4.70;;;17.20;99.90;;;;;;5032987;28;20236;-26
2023/07/21 03:40:35;;;;;;;6.03;4.93;;;17.20;99.90;;;;;;5026162;28;20213;-26
2023/07/21 03:43:06;;;;;;;5.68;5.13;;;17.10;99.90;;;;;;5024014;28;20209;-26
2023/07/21 03:45:36;;;;;;;5.20;4.80;;;17.10;99.90;;;;;;5025219;28;20213;-26
2023/07/21 03:48:08;;;;;;;4.78;4.43;;;17.10;99.90;;;;;;5026778;28;20270;-26
2023/07/21 03:50:38;;;;;;;4.73;4.30;;;17.10;99.90;;;;;;5024517;28;20224;-26
2023/07/21 03:53:10;;;;;;;4.70;4.30;;;17.00;99.90;;;;;;5025510;28;20642;-26
2023/07/21 03:55:49;;;;;;;5.40;4.87;;;17.00;99.90;;;;;;5043298;28;20239;-26
2023/07/21 03:58:19;;;;;;;5.00;4.60;;;17.00;99.90;;;;;;5044807;28;20215;-26
2023/07/21 04:00:51;;;;;;;6.67;4.63;;;16.90;99.90;;;;;;5029625;28;20604;-26
2023/07/21 04:03:21;;;;;;;6.30;4.80;;;16.90;99.90;;;;;;5034198;28;20662;-26
2023/07/21 04:05:48;;;;;;;5.60;4.93;;;16.90;99.90;;;;;;5041133;28;20683;-26
2023/07/21 04:08:15;;;;;;;5.23;4.60;;;16.90;99.90;;;;;;5047408;28;20207;-26
2023/07/21 04:10:43;;;;;;;5.17;4.67;;;16.90;99.90;;;;;;5048519;28;20228;-26
2023/07/21 04:13:12;;;;;;;5.60;5.10;;;16.90;99.90;;;;;;5048971;28;20208;-26
2023/07/21 04:15:41;;;;;;;5.30;4.53;;;16.80;99.90;;;;;;5028754;28;20208;-26
2023/07/21 04:18:12;;;;;;;5.70;5.20;;;16.80;99.90;;;;;;5028310;28;20201;-26
2023/07/21 04:20:41;;;;;;;5.32;4.78;;;16.80;99.90;;;;;;5030156;28;20205;-26
2023/07/21 04:23:14;;;;;;;5.40;4.90;;;16.80;99.90;;;;;;5028619;28;20224;-26
2023/07/21 04:25:47;;;;;;;5.20;4.70;;;16.80;99.90;;;;;;5033807;28;20675;-26
2023/07/21 04:28:14;;;;;;;6.03;5.18;;;16.80;99.90;;;;;;5028405;28;20205;-26
2023/07/21 04:30:44;;;;;;;6.32;4.90;;;16.80;99.90;;;;;;5042552;28;20278;-26
2023/07/21 04:33:13;;;;;;;5.53;5.13;;;16.80;99.90;;;;;;5048275;28;20208;-26
2023/07/21 04:35:46;;;;;;;5.03;4.60;;;16.80;99.90;;;;;;5033479;28;20211;-26
2023/07/21 04:38:16;;;;;;;5.47;5.07;;;16.80;99.90;;;;;;5034980;28;20285;-26
2023/07/21 04:40:44;;;;;;;5.10;4.60;;;16.80;99.90;;;;;;5030513;28;20224;-26
2023/07/21 04:43:12;;;;;;;4.73;4.40;;;16.90;99.90;;;;;;5028123;28;20197;-26
2023/07/21 04:45:44;;;;;;;4.80;4.27;;;16.90;99.90;;;;;;5024818;28;20717;-26
2023/07/21 04:48:14;;;;;;;4.60;4.20;;;16.90;99.90;;;;;;5022476;28;20204;-26
2023/07/21 04:50:43;;;;;;;4.35;3.95;;;16.90;99.90;;;;;;5026239;28;20224;-26
2023/07/21 04:53:13;;;;;;;4.05;3.72;;;16.90;99.90;;;;;;5045950;28;20208;-26
2023/07/21 04:55:40;;;;;;;3.80;3.50;;;16.90;99.90;;;;;;5031307;28;20253;-26
2023/07/21 04:58:09;;;;;;;4.40;3.60;;;16.90;99.90;;;;;;5031120;28;20216;-26
2023/07/21 05:00:39;;;;;;;5.77;3.63;;;17.00;99.90;;;;;;5032321;28;20588;-26
2023/07/21 05:03:08;;;;;;;3.73;3.43;;;17.00;99.90;;;;;;5037104;28;20208;-26
2023/07/21 05:05:39;;;;;;;4.97;4.50;;;17.00;99.90;;;;;;5040374;28;20298;-26
2023/07/21 05:08:08;;;;;;;4.97;4.57;;;17.00;99.90;;;;;;5037842;28;20220;-26
2023/07/21 05:10:42;;;;;;;4.97;4.47;;;17.00;99.90;;;;;;5033514;28;20213;-26
2023/07/21 05:13:11;;;;;;;5.60;5.10;;;17.10;99.90;;;;;;5030882;28;20238;-26
2023/07/21 05:15:41;;;;;;;5.37;4.87;;;17.10;99.90;;;;;;5035102;28;20212;-26
2023/07/21 05:18:10;;;;;;;5.10;4.40;;;17.10;99.90;;;;;;5047230;28;20203;-26
2023/07/21 05:20:43;;;;;;;5.23;4.77;;;17.20;99.90;;;;;;5031871;28;20205;-26
2023/07/21 05:23:12;;;;;;;4.77;4.43;;;17.20;99.90;;;;;;5047329;28;20224;-26
2023/07/21 05:25:42;;;;;;;4.90;4.50;;;17.30;99.90;;;;;;5043566;28;20731;-26
2023/07/21 05:28:09;;;;;;;5.17;4.77;;;17.30;99.90;;;;;;5033165;28;20690;-26
2023/07/21 05:30:42;;;;;;;5.00;4.67;;;17.40;99.90;;;;;;5035952;28;20213;-26
2023/07/21 05:33:09;;;;;;;5.20;4.80;;;17.40;99.90;;;;;;5030050;28;20204;-26
2023/07/21 05:35:39;;;;;;;5.35;4.50;;;17.40;99.90;;;;;;5024001;28;20270;-26
2023/07/21 05:38:09;;;;;;;5.10;4.70;;;17.40;99.90;;;;;;5026009;28;20726;-26
2023/07/21 05:40:36;;;;;;;4.70;4.40;;;17.50;99.90;;;;;;5030706;28;20675;-28
2023/07/21 05:43:05;;;;;;;5.23;4.73;;;17.50;99.90;;;;;;5027522;28;20192;-29
2023/07/21 05:45:38;;;;;;;5.10;4.70;;;17.50;99.90;;;;;;5025157;28;20213;-29
2023/07/21 05:48:09;;;;;;;5.73;5.13;;;17.60;99.90;;;;;;5034560;28;20224;-29
2023/07/21 05:50:37;;;;;;;5.97;5.40;;;17.60;99.90;;;;;;5029625;28;20671;-29
2023/07/21 05:53:06;;;;;;;6.13;5.63;;;17.70;99.90;;;;;;5035480;28;20212;-29
2023/07/21 05:55:37;;;;;;;6.15;5.65;;;17.70;99.90;;;;;;5036711;28;20689;-28
2023/07/21 05:58:08;;;;;;;7.47;6.78;;;17.70;99.90;;;;;;5041847;28;20224;-29
2023/07/21 06:00:36;;;;;;;8.13;7.27;;;17.80;99.90;;;;;;5039016;28;20298;-29
2023/07/21 06:03:06;;;;;;;8.05;7.38;;;17.80;99.90;;;;;;5043199;28;20679;-29
2023/07/21 06:05:36;;;;;;;8.52;7.80;;;17.90;99.90;;;;;;5035869;28;20212;-29
2023/07/21 06:08:06;;;;;;;8.48;7.63;;;17.90;99.90;;;;;;5043990;28;20196;-29
2023/07/21 06:10:34;;;;;;;9.00;8.10;;;18.00;99.90;;;;;;5038092;28;20193;-29
2023/07/21 06:13:01;;;;;;;10.93;9.93;;;18.00;99.90;;;;;;5033920;28;20238;-29
2023/07/21 06:15:34;;;;;;;10.27;9.27;;;18.10;99.90;;;;;;5045930;28;20639;-29
2023/07/21 06:18:06;;;;;;;9.90;9.10;;;18.20;99.90;;;;;;5046069;28;20290;-28
2023/07/21 06:20:36;;;;;;;10.63;9.63;;;18.30;99.90;;;;;;5034313;28;20204;-28
2023/07/21 06:23:05;;;;;;;10.18;9.30;;;18.40;99.90;;;;;;5029130;28;20300;-29
2023/07/21 06:25:35;;;;;;;12.00;10.75;;;18.50;99.90;;;;;;5036299;28;20201;-30
2023/07/21 06:28:05;;;;;;;12.90;11.80;;;18.60;99.90;;;;;;5024718;28;20232;-29
2023/07/21 06:30:32;;;;;;;14.10;12.82;;;18.60;99.90;;;;;;5027668;28;20216;-29
2023/07/21 06:33:05;;;;;;;14.38;12.98;;;18.70;99.90;;;;;;5040047;28;20250;-29
2023/07/21 06:35:35;;;;;;;14.52;13.10;;;18.80;99.90;;;;;;5044193;28;20562;-29
2023/07/21 06:38:09;;;;;;;13.20;12.00;;;18.80;99.90;;;;;;5025059;28;20590;-29
2023/07/21 06:40:36;;;;;;;12.80;11.60;;;18.80;99.90;;;;;;5041024;28;20204;-29
2023/07/21 06:43:04;;;;;;;12.57;11.48;;;18.90;99.90;;;;;;5044955;28;20215;-29
2023/07/21 06:45:33;;;;;;;12.40;11.30;;;19.00;99.90;;;;;;5045371;28;20799;-28
2023/07/21 06:48:02;;;;;;;11.48;10.50;;;19.00;99.90;;;;;;5030112;28;20225;-29
2023/07/21 06:50:36;;;;;;;11.45;10.35;;;19.10;99.90;;;;;;5025160;28;20237;-28
2023/07/21 06:53:05;;;;;;;10.93;9.82;;;19.20;99.90;;;;;;5030536;28;20227;-28
2023/07/21 06:55:36;;;;;;;9.98;9.15;;;19.20;99.90;;;;;;5042501;28;20196;-29
2023/07/21 06:58:04;;;;;;;10.40;9.52;;;19.30;99.90;;;;;;5037888;28;20206;-28
2023/07/21 07:00:33;;;;;;;10.85;9.90;;;19.30;99.90;;;;;;5028147;28;20199;-29
2023/07/21 07:03:02;;;;;;;11.52;10.43;;;19.30;99.90;;;;;;5025114;28;20238;-29
2023/07/21 07:05:32;;;;;;;11.93;10.82;;;19.30;99.90;;;;;;5023879;28;20645;-29
2023/07/21 07:08:02;;;;;;;12.95;11.82;;;19.40;99.90;;;;;;5026130;28;20219;-29
2023/07/21 07:10:31;;;;;;;13.35;12.05;;;19.40;99.90;;;;;;5025087;28;20592;-29
2023/07/21 07:12:58;;;;;;;14.45;13.05;;;19.50;99.90;;;;;;5025724;28;20228;-29
2023/07/21 07:15:28;;;;;;;14.93;13.43;;;19.50;99.90;;;;;;5026342;28;20197;-29
2023/07/21 07:17:55;;;;;;;14.15;12.75;;;19.50;99.90;;;;;;5024737;28;20205;-29
2023/07/21 07:20:23;;;;;;;13.70;12.35;;;19.60;99.90;;;;;;5032483;28;20207;-28
2023/07/21 07:22:50;;;;;;;14.73;13.25;;;19.60;99.90;;;;;;5030257;28;20599;-29
2023/07/21 07:25:23;;;;;;;14.00;12.57;;;19.70;99.90;;;;;;5025656;28;20275;-29
2023/07/21 07:27:52;;;;;;;15.20;13.63;;;19.70;99.90;;;;;;5044327;28;20215;-28
2023/07/21 07:30:26;;;;;;;13.75;12.35;;;19.80;99.90;;;;;;5037489;28;20192;-29
2023/07/21 07:32:58;;;;;;;14.00;12.60;;;19.90;99.90;;;;;;5030168;28;20235;-29
2023/07/21 07:35:26;;;;;;;13.43;12.02;;;19.90;99.90;;;;;;5040431;28;20464;-29
2023/07/21 07:37:53;;;;;;;13.68;12.38;;;20.00;99.90;;;;;;5039723;28;20727;-29
2023/07/21 07:40:23;;;;;;;13.48;12.07;;;20.00;99.90;;;;;;5045090;28;20250;-29
2023/07/21 07:42:50;;;;;;;12.15;11.05;;;20.20;99.90;;;;;;5036498;28;20544;-29
2023/07/21 07:45:17;;;;;;;12.45;11.15;;;20.20;99.90;;;;;;5029557;28;20204;-29
2023/07/21 07:47:49;;;;;;;11.98;10.90;;;20.30;99.90;;;;;;5027139;28;20583;-29
2023/07/21 07:50:17;;;;;;;12.18;10.98;;;20.40;99.90;;;;;;5028471;28;20781;-29
2023/07/21 07:52:49;;;;;;;11.15;10.05;;;20.40;99.90;;;;;;5030253;28;20382;-30
2023/07/21 07:55:17;;;;;;;10.40;9.50;;;20.50;99.90;;;;;;5041434;28;20208;-29
2023/07/21 07:57:47;;;;;;;10.30;9.30;;;20.60;99.90;;;;;;5032939;28;20205;-29
2023/07/21 08:00:14;;;;;;;10.15;9.13;;;20.60;99.90;;;;;;5027295;28;20616;-25
2023/07/21 08:02:43;;;;;;;8.52;7.63;;;20.70;99.90;;;;;;5027698;28;20627;-25
2023/07/21 08:05:13;;;;;;;9.10;7.63;;;20.80;99.90;;;;;;5029809;28;20220;-25
2023/07/21 08:07:40;;;;;;;10.82;9.50;;;20.90;99.90;;;;;;5028798;28;20217;-26
2023/07/21 08:10:08;;;;;;;11.77;9.93;;;21.00;99.90;;;;;;5040388;28;20611;-25
2023/07/21 08:12:35;;;;;;;10.35;9.43;;;21.10;99.90;;;;;;5039241;28;20220;-25
2023/07/21 08:15:03;;;;;;;10.13;9.10;;;21.20;99.90;;;;;;5031006;28;20574;-25
2023/07/21 08:17:36;;;;;;;10.18;8.98;;;21.20;99.90;;;;;;5028347;28;20201;-25
2023/07/21 08:20:08;;;;;;;10.50;8.43;;;21.30;99.90;;;;;;5026913;28;20197;-25
2023/07/21 08:22:38;;;;;;;9.05;8.10;;;21.50;99.90;;;;;;5029953;28;20375;-25
2023/07/21 08:25:10;;;;;;;10.73;9.63;;;21.50;99.90;;;;;;5037753;28;20208;-25
2023/07/21 08:27:37;;;;;;;10.00;9.10;;;21.60;99.90;;;;;;5035544;28;20205;-26
2023/07/21 08:30:10;;;;;;;10.50;9.43;;;21.70;99.90;;;;;;5027997;28;20197;-25
2023/07/21 08:32:40;;;;;;;11.38;10.27;;;21.70;99.90;;;;;;5028529;28;20239;-26
2023/07/21 08:35:09;;;;;;;12.43;11.20;;;21.80;99.90;;;;;;5027278;28;20251;-25
2023/07/21 08:37:38;;;;;;;11.70;10.43;;;21.80;99.90;;;;;;5027443;28;20785;-26
2023/07/21 08:40:07;;;;;;;11.00;10.00;;;21.80;99.90;;;;;;5039332;28;21011;-26
2023/07/21 08:42:39;;;;;;;10.93;9.43;;;21.80;99.90;;;;;;5047294;28;20200;-25
2023/07/21 08:45:10;;;;;;;11.60;9.27;;;21.80;99.90;;;;;;5048131;28;20216;-25
2023/07/21 08:47:39;;;;;;;11.30;10.20;;;21.80;99.90;;;;;;5033795;28;20672;-26
2023/07/21 08:50:17;;;;;;;10.57;9.48;;;21.80;99.90;;;;;;5026213;28;20212;-25
2023/07/21 08:52:44;;;;;;;10.15;9.05;;;21.80;99.90;;;;;;5026393;28;20224;-25
2023/07/21 08:55:14;;;;;;;11.25;10.15;;;21.80;99.90;;;;;;5027774;28;20748;-25
2023/07/21 08:57:43;;;;;;;11.38;10.02;;;21.70;99.90;;;;;;5028929;28;20209;-25
2023/07/21 09:00:15;;;;;;;10.75;9.65;;;21.70;99.90;;;;;;5027738;28;20220;-25
2023/07/21 09:02:47;;;;;;;10.35;9.35;;;21.70;99.90;;;;;;5027920;28;20225;-25
2023/07/21 09:05:18;;;;;;;11.70;10.40;;;21.70;99.90;;;;;;5033629;28;20201;-25
2023/07/21 09:07:50;;;;;;;10.85;9.85;;;21.60;99.90;;;;;;5030294;28;20679;-26
2023/07/21 09:10:36;;;;;;;11.45;10.40;;;21.70;99.90;;;;;;5045828;28;20204;-25
2023/07/21 09:13:16;;;;;;;11.43;10.32;;;21.70;99.90;;;;;;5047373;28;20231;-25
2023/07/21 09:15:55;;;;;;;11.10;9.98;;;21.70;99.90;;;;;;5045339;28;20208;-25
2023/07/21 09:18:36;;;;;;;11.98;9.32;;;21.70;99.90;;;;;;5039753;28;20200;-26
2023/07/21 09:21:03;;;;;;;11.38;10.27;;;21.70;99.90;;;;;;5045258;28;20224;-25
2023/07/21 09:23:32;;;;;;;11.38;10.25;;;21.60;99.90;;;;;;5029943;28;20204;-25
2023/07/21 09:26:00;;;;;;;10.30;9.25;;;21.70;99.90;;;;;;5034563;28;20208;-25
2023/07/21 09:28:41;;;;;;;11.15;10.10;;;21.70;99.90;;;;;;5038222;28;20758;-25
2023/07/21 09:31:09;;;;;;;10.45;9.15;;;21.80;99.90;;;;;;5036861;28;20209;-25
2023/07/21 09:33:44;;;;;;;10.93;9.75;;;21.80;99.90;;;;;;5034672;28;20718;-25
2023/07/21 09:36:16;;;;;;;9.93;9.02;;;21.80;99.90;;;;;;5033312;28;20312;-25
2023/07/21 09:38:45;;;;;;;9.93;8.93;;;21.90;99.90;;;;;;5045258;28;20232;-25
2023/07/21 09:41:14;;;;;;;9.75;8.77;;;21.90;99.90;;;;;;5024307;28;20213;-25
2023/07/21 09:43:43;;;;;;;9.70;8.68;;;21.90;99.90;;;;;;5027011;28;21102;-25
2023/07/21 09:46:11;;;;;;;8.90;7.97;;;21.90;99.90;;;;;;5036496;28;20678;-25
2023/07/21 09:49:00;;;;;;;8.07;7.28;;;21.90;99.90;;;;;;5042280;28;20224;-25
2023/07/21 09:51:29;;;;;;;8.50;7.63;;;21.90;99.90;;;;;;5016893;28;20279;-25
2023/07/21 09:54:02;;;;;;;8.65;7.82;;;21.90;99.90;;;;;;5044064;28;20231;-26
2023/07/21 09:56:36;;;;;;;8.77;7.75;;;21.90;99.90;;;;;;5037776;28;20677;-25
2023/07/21 09:59:06;;;;;;;9.02;7.80;;;21.90;99.90;;;;;;5024668;28;20193;-25
2023/07/21 10:01:33;;;;;;;7.85;7.00;;;21.90;99.90;;;;;;5026999;28;20225;-25
2023/07/21 10:04:04;;;;;;;9.35;7.40;;;21.90;99.90;;;;;;5026701;28;20596;-25
2023/07/21 10:06:32;;;;;;;7.18;6.57;;;21.90;99.90;;;;;;5024791;28;20205;-25
2023/07/21 10:09:08;;;;;;;5.75;5.25;;;21.90;99.90;;;;;;5040537;28;20216;-25
2023/07/21 10:11:42;;;;;;;5.70;5.10;;;21.90;99.90;;;;;;5026587;28;20211;-25
2023/07/21 10:14:30;;;;;;;11.68;7.35;;;22.00;99.90;;;;;;5041061;28;20352;-25
2023/07/21 10:17:00;;;;;;;34.45;17.92;;;22.00;99.90;;;;;;5025423;28;20246;-25
2023/07/21 10:19:37;;;;;;;7.53;6.78;;;22.00;99.90;;;;;;5026729;28;20243;-25
2023/07/21 10:22:05;;;;;;;7.68;5.95;;;22.00;99.90;;;;;;5029282;28;20231;-25
2023/07/21 10:24:36;;;;;;;6.82;6.13;;;22.00;99.90;;;;;;5042417;28;20762;-26
2023/07/21 10:27:07;;;;;;;6.68;6.07;;;21.90;99.90;;;;;;5039403;28;20231;-25
2023/07/21 10:29:36;;;;;;;7.10;6.40;;;21.90;99.90;;;;;;5026530;28;20572;-25
2023/07/21 10:32:05;;;;;;;6.50;5.85;;;21.90;99.90;;;;;;5036041;28;20213;-25
2023/07/21 10:34:34;;;;;;;6.95;5.93;;;21.90;99.90;;;;;;5025778;28;20209;-25
2023/07/21 10:37:04;;;;;;;8.15;7.45;;;21.90;99.90;;;;;;5047983;28;20197;-25
2023/07/21 10:39:37;;;;;;;7.45;6.85;;;22.00;99.90;;;;;;5025812;28;20327;-25
2023/07/21 10:42:12;;;;;;;8.35;7.60;;;22.00;99.90;;;;;;5035683;28;20204;-25
2023/07/21 10:44:49;;;;;;;6.78;6.18;;;22.00;99.90;;;;;;5029004;28;20942;-25
2023/07/21 10:47:23;;;;;;;6.60;5.30;;;22.00;99.90;;;;;;5037487;28;20257;-25
2023/07/21 10:49:51;;;;;;;7.15;6.38;;;22.10;99.90;;;;;;5043030;28;20224;-25
2023/07/21 10:52:24;;;;;;;8.10;7.30;;;22.10;99.90;;;;;;5031438;28;20224;-25
2023/07/21 10:54:56;;;;;;;7.95;7.15;;;22.10;99.90;;;;;;5044020;28;20207;-25
2023/07/21 10:57:32;;;;;;;6.72;6.13;;;22.10;99.90;;;;;;5045512;28;20204;-25
2023/07/21 11:00:02;;;;;;;5.75;5.25;;;22.10;99.90;;;;;;5044339;28;20192;-25
2023/07/21 11:02:31;;;;;;;7.05;6.35;;;22.10;99.90;;;;;;5031363;28;20211;-25
2023/07/21 11:05:02;;;;;;;6.07;5.57;;;22.20;99.90;;;;;;5024919;28;20662;-26
2023/07/21 11:07:29;;;;;;;5.22;4.72;;;22.30;99.90;;;;;;5047231;28;20432;-26
2023/07/21 11:10:00;;;;;;;4.00;3.55;;;22.30;99.90;;;;;;5048428;28;20208;-25
2023/07/21 11:12:32;;;;;;;3.70;3.25;;;22.30;99.90;;;;;;5030525;28;20702;-25
2023/07/21 11:14:59;;;;;;;3.90;3.47;;;22.30;99.90;;;;;;5029195;28;20224;-25
2023/07/21 11:17:31;;;;;;;7.28;6.18;;;22.30;99.90;;;;;;5034850;28;20659;-25
2023/07/21 11:20:06;;;;;;;6.53;4.97;;;22.40;99.90;;;;;;5045899;28;20961;-26
2023/07/21 11:22:35;;;;;;;4.82;4.35;;;22.40;99.90;;;;;;5023943;28;20220;-25
2023/07/21 11:25:12;;;;;;;6.90;6.20;;;22.40;99.90;;;;;;5032713;28;20685;-26
2023/07/21 11:27:48;;;;;;;5.63;4.90;;;22.30;99.90;;;;;;5038076;28;20204;-26
2023/07/21 11:30:17;;;;;;;6.25;5.75;;;22.30;99.90;;;;;;5030785;28;20223;-26
2023/07/21 11:32:45;;;;;;;6.18;5.03;;;22.20;99.90;;;;;;5027526;28;20565;-26
2023/07/21 11:35:13;;;;;;;7.68;5.78;;;22.00;99.90;;;;;;5028878;28;20204;-26
2023/07/21 11:37:44;;;;;;;7.65;6.25;;;21.90;99.90;;;;;;5040303;28;20208;-26
2023/07/21 11:40:23;;;;;;;7.85;5.93;;;21.70;99.90;;;;;;5027774;28;20227;-26
2023/07/21 11:42:54;;;;;;;6.32;5.72;;;21.60;99.90;;;;;;5046390;28;20204;-26
2023/07/21 11:45:50;;;;;;;6.25;5.35;;;21.40;99.90;;;;;;5049332;28;20204;-26
2023/07/21 11:48:18;;;;;;;5.85;5.35;;;21.40;99.90;;;;;;5045759;28;20358;-26
2023/07/21 11:50:50;;;;;;;5.13;4.45;;;21.30;99.90;;;;;;5046979;28;20208;-26
2023/07/21 11:53:19;;;;;;;6.13;4.55;;;21.30;99.90;;;;;;5033120;28;20720;-25
2023/07/21 11:55:52;;;;;;;4.53;3.88;;;21.20;99.90;;;;;;5029145;28;20201;-26
2023/07/21 11:58:22;;;;;;;5.90;3.40;;;21.20;99.90;;;;;;5043425;28;20224;-26
2023/07/21 12:00:52;;;;;;;3.30;2.70;;;21.20;99.90;;;;;;5048613;28;20215;-25
2023/07/21 12:03:22;;;;;;;5.53;3.35;;;21.10;99.90;;;;;;5048737;28;20203;-26
2023/07/21 12:05:51;;;;;;;3.97;3.30;;;21.00;99.90;;;;;;5048139;28;20204;-26
2023/07/21 12:08:19;;;;;;;4.10;3.70;;;20.90;99.90;;;;;;5028843;28;20237;-26
2023/07/21 12:10:48;;;;;;;4.00;3.60;;;20.70;99.90;;;;;;5029844;28;20209;-26
2023/07/21 12:13:15;;;;;;;4.30;3.90;;;20.60;99.90;;;;;;5040124;28;20223;-26
2023/07/21 12:15:45;;;;;;;4.18;3.65;;;20.50;99.90;;;;;;5030803;28;20205;-26
2023/07/21 12:18:14;;;;;;;4.25;3.65;;;20.40;99.90;;;;;;5043112;28;20212;-26
2023/07/21 12:20:42;;;;;;;5.28;4.18;;;20.40;99.90;;;;;;5027599;28;20212;-26
2023/07/21 12:23:09;;;;;;;3.70;3.40;;;20.30;99.90;;;;;;5027751;28;20224;-25
2023/07/21 12:25:37;;;;;;;3.70;3.35;;;20.20;99.90;;;;;;5028367;28;20553;-26
2023/07/21 12:28:06;;;;;;;3.50;3.20;;;20.20;99.90;;;;;;5037666;28;21590;-26
2023/07/21 12:30:34;;;;;;;3.38;3.08;;;20.10;99.90;;;;;;5031902;28;20240;-26
2023/07/21 12:33:02;;;;;;;5.65;3.42;;;20.00;99.90;;;;;;5026242;28;20221;-26
2023/07/21 12:35:32;;;;;;;4.35;3.30;;;20.00;99.90;;;;;;5025725;28;20204;-26
2023/07/21 12:38:02;;;;;;;3.95;3.60;;;20.00;99.90;;;;;;5027851;28;20252;-26
2023/07/21 12:40:29;;;;;;;5.35;3.70;;;20.00;99.90;;;;;;5027389;28;20556;-26
2023/07/21 12:42:59;;;;;;;4.60;3.90;;;20.00;99.90;;;;;;5027064;28;20221;-26
2023/07/21 12:45:27;;;;;;;4.28;3.88;;;20.00;99.90;;;;;;5037416;28;20224;-26
2023/07/21 12:47:56;;;;;;;5.57;4.10;;;20.10;99.90;;;;;;5048626;28;20196;-26
2023/07/21 12:50:24;;;;;;;4.40;3.90;;;20.10;99.90;;;;;;5032092;28;20225;-26
2023/07/21 12:52:53;;;;;;;4.07;3.67;;;20.10;99.90;;;;;;5027080;28;20229;-26
2023/07/21 12:55:25;;;;;;;4.43;4.03;;;20.20;99.90;;;;;;5042469;28;20212;-26
2023/07/21 12:57:53;;;;;;;4.28;3.55;;;20.30;99.90;;;;;;5048021;28;20204;-26